Terminal Aerodrome Forecast
Issued by NWS

Home | Current Version | Previous Version | Text Only | Print | Product List | Glossary On
Versions: 1 2 3 4 5 6 7 8 9 10 11 12 13 14 15
000
FTUS45 KABQ 170500
TAFSAF
TAF
KSAF 170526Z 1706/1806 24005KT P6SM FEW030
     FM170900 33005KT P6SM VCSH SCT015 BKN050
     FM171500 33005KT P6SM BKN080
     FM172200 12010KT P6SM BKN080
     FM180200 12010KT P6SM BKN150=

USA.gov is the U.S. government's official web portal to all federal, state and local government web resources and services.